Sand Springs, OK (74063)

11:15 PM CDT on August 29, 2015 (GMT -0500)
Rustic Rd. | | Change Station
CLOSE
Current Station
Personal Weather Station
Location: Sand Springs, OK
Elevation: 768 ft
Nearby Weather Stations

Elev 768 ft 36.10 °N, 96.11 °W | Updated 1 minute ago

Mostly Cloudy
Mostly Cloudy
73.6 °F
Feels Like 73 °F
N
0.0
Wind Variable Wind from SW

Today
High -- | Low -- °F
--% Chance of Precip.
Yesterday
High -- | Low -- °F
Precip. -- in
6:53 AM 7:56 PM
Full, 100% visible
Pressure 30.00 in
Visibility 10.0 miles
Clouds Scattered Clouds 5000 ft
Mostly Cloudy 7500 ft
Heat Index 73 °F
Dew Point 68 °F
Humidity 84%
Rainfall 0.00 in
Snow Depth Not available.
UV 0 out of 12
Pollen 8.20 out of 12
Air Quality Not available.
Flu Activity Not available.
METAR KOWP 300355Z AUTO 05004KT 10SM SCT050 BKN075 25/20 A3000 RMK AO2 LTG DSNT E T02500198
Pressure 30.00 in
Visibility 10.0 miles
Clouds Scattered Clouds 5000 ft
Mostly Cloudy 7500 ft
Heat Index 73 °F
Dew Point 68 °F
Humidity 84%
Rainfall 0.00 in
Snow Depth Not available.
UV 0 out of 12
Pollen 8.20 out of 12
Air Quality Not available.
Flu Activity Not available.
METAR KOWP 300355Z AUTO 05004KT 10SM SCT050 BKN075 25/20 A3000 RMK AO2 LTG DSNT E T02500198
Nowcast | as of 11:06 PM CDT on August 29, 2015

At 11 PM...weather radars continued to detect scattered showers and isolated thunderstorms east of a line from Jay to McAlester...moving east at 20 mph. Through 1:00 am...scattered showers and thunderstorms will continue to develop across far eastern Oklahoma and northwest Arkansas. The strongest storms could produce small hail and brief heavy downpours. Severe weather is not expected.

×

10-Day Weather Forecast

×

Almanac

Astronomy

Aug. 29, 2015 Rise Set
Actual Time
Civil Twilight
Nautical Twilight
Astronomical Twilight
Moon
Length of Visible Light
Length of Day
Tomorrow will be .
, % of the Moon is Illuminated

Today's Extremes

State Highs State Lows

Community

WunderPhotos

Upload Photos

1,850,880 photos uploaded!

WunderBlogs® & News

Nearby

Air Quality

  Air Quality AQ Index Pollutant
Not available.

Snow Depth

Station Depth Elevation

Earthquake Activity

City Distance Mag. Time & Date
Minimum magnitude displayed is 2.5.

Coastal Water Temperatures

Place Temperature

Stations

Nearby Weather Stations

Station Location Temp. Windchill Dew Point Humidity Wind Precip. Elev Updated Type